createdAt,value
2023-02-11T00:01:35.037Z,101117.81
2023-02-11T00:04:06.918Z,101115.50
2023-02-11T00:06:38.823Z,101116.50
2023-02-11T00:09:10.998Z,101119.72
2023-02-11T00:11:42.019Z,101103.19
2023-02-11T00:14:15.422Z,101109.34
2023-02-11T00:16:46.092Z,101120.03
2023-02-11T00:19:16.546Z,101122.66
2023-02-11T00:21:47.081Z,101115.91
2023-02-11T00:24:19.037Z,101107.88
2023-02-11T00:26:49.463Z,101111.00
2023-02-11T00:29:20.002Z,101111.41
2023-02-11T00:31:50.759Z,101110.38
2023-02-11T00:34:21.299Z,101074.19
2023-02-11T00:36:52.796Z,101101.84
2023-02-11T00:39:24.914Z,101121.13
2023-02-11T00:41:55.446Z,101075.50
2023-02-11T00:44:26.203Z,101113.66
2023-02-11T00:46:56.717Z,101122.47
2023-02-11T00:49:27.707Z,101112.84
2023-02-11T00:51:58.145Z,101105.31
2023-02-11T00:54:30.217Z,101110.09
2023-02-11T00:57:00.719Z,101101.28
2023-02-11T00:59:31.217Z,101085.22
2023-02-11T01:02:01.705Z,101106.94
2023-02-11T01:04:32.205Z,101100.97
2023-02-11T01:07:02.663Z,101109.09
2023-02-11T01:09:34.753Z,101099.97
2023-02-11T01:12:05.130Z,101098.59
2023-02-11T01:14:35.592Z,101097.16
2023-02-11T01:17:07.999Z,100993.47
2023-02-11T01:19:39.838Z,101064.00
2023-02-11T01:22:10.356Z,101088.06
2023-02-11T01:24:42.439Z,101088.44
2023-02-11T01:27:12.847Z,101086.59
2023-02-11T01:29:51.602Z,101073.56
2023-02-11T01:32:22.406Z,101077.22
2023-02-11T01:34:53.006Z,101088.28
2023-02-11T01:37:23.624Z,101081.47
2023-02-11T01:39:58.800Z,101080.38
2023-02-11T01:42:29.610Z,100996.88
2023-02-11T01:45:01.311Z,101066.97
2023-02-11T01:47:31.948Z,101067.22
2023-02-11T01:50:04.906Z,101061.66
2023-02-11T01:52:39.996Z,101055.97
2023-02-11T01:55:32.436Z,101056.59
2023-02-11T01:58:07.758Z,101050.25
2023-02-11T02:00:41.299Z,101049.13
2023-02-11T02:03:15.518Z,101025.38
2023-02-11T02:05:50.162Z,101033.78
2023-02-11T02:08:26.080Z,101041.38
2023-02-11T02:11:01.548Z,101021.97
2023-02-11T02:13:35.033Z,101031.41
2023-02-11T02:16:09.897Z,101025.81
2023-02-11T02:18:50.695Z,101016.06
2023-02-11T02:21:44.388Z,101008.38
2023-02-11T02:24:47.228Z,101001.56
2023-02-11T02:27:40.386Z,101004.25
2023-02-11T02:30:52.796Z,100998.91
2023-02-11T02:33:40.322Z,100993.56
2023-02-11T02:36:20.707Z,100943.13
2023-02-11T02:38:57.482Z,100989.75
2023-02-11T02:41:32.837Z,100986.09
2023-02-11T02:44:03.870Z,100993.56
2023-02-11T02:46:36.520Z,100992.25
2023-02-11T02:49:15.656Z,100944.69
2023-02-11T02:52:26.834Z,100988.69
2023-02-11T02:55:19.472Z,100983.00
2023-02-11T02:58:09.018Z,100986.94
2023-02-11T03:00:47.560Z,100873.50
2023-02-11T03:03:25.975Z,100962.22
2023-02-11T03:06:04.444Z,100962.53
2023-02-11T03:08:41.773Z,100974.19
2023-02-11T03:11:14.528Z,100956.59
2023-02-11T03:13:46.398Z,100958.63
2023-02-11T03:16:25.356Z,100957.72
2023-02-11T03:19:02.219Z,100958.19
2023-02-11T03:21:36.532Z,100949.28
2023-02-11T03:24:13.385Z,100953.94
2023-02-11T03:26:46.958Z,100958.78
2023-02-11T03:29:23.877Z,100937.84
2023-02-11T03:32:02.581Z,100874.13
2023-02-11T03:34:38.637Z,100948.50
2023-02-11T03:37:16.200Z,100945.56
2023-02-11T03:39:51.581Z,100933.81
2023-02-11T03:42:22.927Z,100942.66
2023-02-11T03:44:56.571Z,100934.75
2023-02-11T03:47:30.899Z,100945.78
2023-02-11T03:50:05.571Z,100930.03
2023-02-11T03:52:39.630Z,100939.88
2023-02-11T03:55:16.076Z,100928.50
2023-02-11T03:57:46.797Z,100925.38
2023-02-11T04:00:17.978Z,100923.38
2023-02-11T04:02:49.998Z,100925.38
2023-02-11T04:05:20.699Z,100916.09
2023-02-11T04:07:52.884Z,100899.53
2023-02-11T04:10:23.624Z,100902.59
2023-02-11T04:12:54.273Z,100911.63
2023-02-11T04:15:24.964Z,100891.09
2023-02-11T04:17:55.714Z,100908.38
2023-02-11T04:20:26.201Z,100915.88
2023-02-11T04:22:58.404Z,100908.59
2023-02-11T04:25:28.820Z,100920.34
2023-02-11T04:27:59.294Z,100907.53
2023-02-11T04:30:29.725Z,100893.09
2023-02-11T04:33:01.289Z,100896.22
2023-02-11T04:35:31.796Z,100891.63
2023-02-11T04:38:03.733Z,100893.63
2023-02-11T04:40:34.308Z,100895.94
2023-02-11T04:43:05.228Z,100871.09
2023-02-11T04:45:36.128Z,100851.28
2023-02-11T04:48:07.712Z,100864.78
2023-02-11T04:50:38.182Z,100895.09
2023-02-11T04:53:10.571Z,100890.53
2023-02-11T04:55:41.076Z,100898.09
2023-02-11T04:58:12.330Z,100892.38
2023-02-11T05:00:42.815Z,100897.56
2023-02-11T05:03:13.549Z,100898.34
2023-02-11T05:05:44.960Z,100885.16
2023-02-11T05:08:17.046Z,100895.25
2023-02-11T05:10:50.084Z,100890.66
2023-02-11T05:13:20.556Z,100899.81
2023-02-11T05:15:51.405Z,100898.34
2023-02-11T05:18:22.064Z,100897.06
2023-02-11T05:20:52.475Z,100903.94
2023-02-11T05:23:24.683Z,100912.28
2023-02-11T05:25:55.203Z,100903.50
2023-02-11T05:28:25.660Z,100907.91
2023-02-11T05:30:56.188Z,100906.66
2023-02-11T05:33:27.149Z,100910.69
2023-02-11T05:36:02.490Z,100886.56
2023-02-11T05:38:34.994Z,100904.09
2023-02-11T05:41:06.227Z,100903.63
2023-02-11T05:43:37.524Z,100838.88
2023-02-11T05:46:08.256Z,100900.41
2023-02-11T05:48:38.728Z,100898.66
2023-02-11T05:51:09.325Z,100899.25
2023-02-11T05:53:41.411Z,100893.56
2023-02-11T05:56:12.454Z,100901.47
2023-02-11T05:58:42.985Z,100889.03
2023-02-11T06:01:13.481Z,100904.09
2023-02-11T06:03:44.012Z,100904.25
2023-02-11T06:06:14.995Z,100912.72
2023-02-11T06:08:47.218Z,100914.97
2023-02-11T06:11:18.720Z,100911.81
2023-02-11T06:13:49.123Z,100911.09
2023-02-11T06:16:19.525Z,100912.25
2023-02-11T06:18:50.082Z,100918.47
2023-02-11T06:21:20.514Z,100918.19
2023-02-11T06:23:52.628Z,100930.97
2023-02-11T06:26:25.242Z,100931.28
2023-02-11T06:28:55.698Z,100941.34
2023-02-11T06:31:26.261Z,100938.84
2023-02-11T06:33:57.404Z,100943.25
2023-02-11T06:36:27.892Z,100943.03
2023-02-11T06:38:59.935Z,100959.63
2023-02-11T06:41:30.655Z,100960.25
2023-02-11T06:44:04.050Z,100964.59
2023-02-11T06:46:34.542Z,100961.47
2023-02-11T06:49:05.072Z,100966.84
2023-02-11T06:51:35.561Z,100981.41
2023-02-11T06:54:09.176Z,100976.59
2023-02-11T06:56:42.348Z,100976.28
2023-02-11T06:59:17.752Z,100982.19
2023-02-11T07:01:48.346Z,100889.00
2023-02-11T07:04:18.823Z,100983.66
2023-02-11T07:06:49.261Z,100990.41
2023-02-11T07:09:24.008Z,100999.44
2023-02-11T07:11:54.693Z,101002.06
2023-02-11T07:14:25.228Z,101006.44
2023-02-11T07:16:55.773Z,101014.91
2023-02-11T07:19:26.470Z,101019.75
2023-02-11T07:21:56.875Z,101021.66
2023-02-11T07:24:28.968Z,101019.22
2023-02-11T07:26:59.363Z,101030.63
2023-02-11T07:29:29.858Z,101035.44
2023-02-11T07:32:00.458Z,101019.94
2023-02-11T07:34:30.994Z,101034.13
2023-02-11T07:37:01.470Z,101033.22
2023-02-11T07:39:33.701Z,101043.66
2023-02-11T07:42:04.301Z,101036.41
2023-02-11T07:44:35.933Z,101043.72
2023-02-11T07:47:06.719Z,101049.59
2023-02-11T07:49:37.312Z,101055.16
2023-02-11T07:52:07.952Z,101047.41
2023-02-11T07:54:40.051Z,101052.63
2023-02-11T07:57:10.551Z,101068.44
2023-02-11T07:59:40.993Z,101068.69
2023-02-11T08:02:17.550Z,101061.38
2023-02-11T08:04:49.807Z,101067.94
2023-02-11T08:11:13.022Z,101070.78
2023-02-11T08:13:44.023Z,101071.88
2023-02-11T08:16:21.923Z,101075.78
2023-02-11T08:18:53.850Z,101078.81
2023-02-11T08:24:51.413Z,101068.75
2023-02-11T08:27:30.613Z,101083.66
2023-02-11T08:30:01.807Z,101074.81
2023-02-11T08:32:32.372Z,101084.66
2023-02-11T08:35:10.064Z,101031.94
2023-02-11T08:37:40.694Z,101079.13
2023-02-11T08:40:11.934Z,101095.53
2023-02-11T08:42:44.707Z,101029.78
2023-02-11T08:45:15.183Z,101094.81
2023-02-11T08:47:45.753Z,101089.22
2023-02-11T08:50:16.246Z,101095.53
2023-02-11T08:52:49.540Z,101087.97
2023-02-11T08:55:20.222Z,101097.28
2023-02-11T08:57:54.915Z,101104.38
2023-02-11T09:00:37.175Z,101090.50
2023-02-11T09:03:07.726Z,101088.47
2023-02-11T09:05:41.656Z,101095.53
2023-02-11T09:08:15.240Z,101051.56
2023-02-11T09:10:48.932Z,101096.00
2023-02-11T09:13:26.199Z,101089.41
2023-02-11T09:16:03.270Z,101092.38
2023-02-11T09:18:37.454Z,101009.81
2023-02-11T09:21:09.473Z,101071.91
2023-02-11T09:23:39.970Z,101088.66
2023-02-11T09:26:16.705Z,101065.03
2023-02-11T09:28:49.484Z,101073.91
2023-02-11T09:31:23.170Z,101072.56
2023-02-11T09:33:58.923Z,101077.78
2023-02-11T09:36:31.414Z,101087.00
2023-02-11T09:39:03.639Z,101080.38
2023-02-11T09:41:51.976Z,101077.75
2023-02-11T09:44:27.765Z,101078.97
2023-02-11T09:47:03.630Z,101093.38
2023-02-11T09:49:42.458Z,101098.41
2023-02-11T09:52:22.047Z,101101.00
2023-02-11T09:55:01.099Z,101102.50
2023-02-11T09:57:36.678Z,101106.19
2023-02-11T10:00:23.946Z,101103.47
2023-02-11T10:03:23.021Z,101121.84
2023-02-11T10:06:26.826Z,101119.88
2023-02-11T10:09:09.384Z,101063.66
2023-02-11T10:11:52.590Z,101126.06
2023-02-11T10:14:36.990Z,101109.72
2023-02-11T10:17:23.495Z,101103.00
2023-02-11T10:20:09.001Z,101116.25
2023-02-11T10:22:46.186Z,101114.22
2023-02-11T10:25:23.748Z,101116.59
2023-02-11T10:27:57.311Z,101110.41
2023-02-11T10:30:34.209Z,101105.31
2023-02-11T10:33:15.710Z,101105.38
2023-02-11T10:35:47.320Z,101129.31
2023-02-11T10:38:18.907Z,101129.13
2023-02-11T10:40:50.718Z,101134.44
2023-02-11T10:43:26.352Z,101119.59
2023-02-11T10:45:59.880Z,101122.31
2023-02-11T10:48:44.547Z,101115.88
2023-02-11T10:51:23.168Z,101127.31
2023-02-11T10:54:14.526Z,101119.41
2023-02-11T10:56:51.313Z,101086.47
2023-02-11T10:59:29.829Z,101043.66
2023-02-11T11:02:04.160Z,101085.22
2023-02-11T11:04:47.237Z,101137.28
2023-02-11T11:07:25.502Z,101123.31
2023-02-11T11:10:00.659Z,101124.41
2023-02-11T11:12:35.911Z,101123.09
2023-02-11T11:15:23.314Z,101127.09
2023-02-11T11:18:04.108Z,101124.56
2023-02-11T11:20:58.119Z,101129.91
2023-02-11T11:23:31.193Z,101140.31
2023-02-11T11:26:10.126Z,101134.72
2023-02-11T11:28:45.542Z,101134.94
2023-02-11T11:31:20.999Z,101124.75
2023-02-11T11:33:54.614Z,101117.97
2023-02-11T11:36:37.128Z,101135.63
2023-02-11T11:39:24.796Z,101137.25
2023-02-11T11:42:00.887Z,101117.97
2023-02-11T11:44:36.838Z,101128.13
2023-02-11T11:47:43.712Z,101133.28
2023-02-11T11:50:31.048Z,101089.94
2023-02-11T11:53:10.865Z,101130.06
2023-02-11T11:55:47.318Z,101006.88
2023-02-11T11:58:21.704Z,101072.06
2023-02-11T12:01:04.278Z,101119.47
2023-02-11T12:04:04.303Z,101135.94
2023-02-11T12:06:40.501Z,101129.16
2023-02-11T12:09:26.194Z,101122.47
2023-02-11T12:12:15.497Z,101125.97
2023-02-11T12:14:58.873Z,101130.13
2023-02-11T12:17:53.703Z,101117.06
2023-02-11T12:20:35.115Z,100962.56
2023-02-11T12:23:36.228Z,101103.81
2023-02-11T12:26:18.153Z,101105.03
2023-02-11T12:29:06.734Z,101099.66
2023-02-11T12:32:01.705Z,101087.47
2023-02-11T12:35:07.621Z,101097.81
2023-02-11T12:37:56.448Z,101039.09
2023-02-11T12:40:35.557Z,101092.44
2023-02-11T12:43:23.181Z,101028.13
2023-02-11T12:46:09.374Z,101082.19
2023-02-11T12:49:05.883Z,101083.81
2023-02-11T12:51:48.312Z,101084.41
2023-02-11T12:54:28.415Z,101089.47
2023-02-11T12:57:03.548Z,101090.69
2023-02-11T12:59:50.818Z,101085.66
2023-02-11T13:02:33.193Z,101095.25
2023-02-11T13:05:33.876Z,101063.94
2023-02-11T13:08:12.390Z,101043.44
2023-02-11T13:10:47.187Z,101080.22
2023-02-11T13:13:24.010Z,101081.38
2023-02-11T13:16:01.970Z,101078.69
2023-02-11T13:18:50.521Z,101079.63
2023-02-11T13:21:35.998Z,101078.13
2023-02-11T13:24:18.589Z,101077.69
2023-02-11T13:26:57.165Z,101067.13
2023-02-11T13:29:40.157Z,101083.81
2023-02-11T13:32:17.105Z,101088.31
2023-02-11T13:35:06.148Z,101089.28
2023-02-11T13:37:41.610Z,101091.38
2023-02-11T13:40:27.196Z,101088.63
2023-02-11T13:43:05.771Z,101087.84
2023-02-11T13:45:43.652Z,101070.44
2023-02-11T13:48:25.440Z,101086.34
2023-02-11T13:50:59.880Z,101081.31
2023-02-11T13:53:32.773Z,101079.84
2023-02-11T13:56:12.954Z,101088.41
2023-02-11T13:58:52.786Z,101086.34
2023-02-11T14:02:05.973Z,101083.53
2023-02-11T14:05:07.444Z,101027.91
2023-02-11T14:07:55.589Z,101086.59
2023-02-11T14:10:54.618Z,101087.16
2023-02-11T14:13:28.915Z,101089.94
2023-02-11T14:16:12.331Z,101093.50
2023-02-11T14:19:05.387Z,101041.16
2023-02-11T14:21:41.468Z,101082.66
2023-02-11T14:24:50.107Z,101089.94
2023-02-11T14:27:34.809Z,101073.41
2023-02-11T14:30:30.398Z,101085.34
2023-02-11T14:33:31.154Z,101057.63
2023-02-11T14:36:11.620Z,101060.97
2023-02-11T14:39:02.233Z,101058.47
2023-02-11T14:41:38.942Z,101068.34
2023-02-11T14:44:18.020Z,101065.38
2023-02-11T14:46:51.002Z,101042.09
2023-02-11T14:49:29.979Z,101061.84
2023-02-11T14:52:07.282Z,101069.84
2023-02-11T14:54:40.924Z,101065.91
2023-02-11T14:57:17.387Z,101061.94
2023-02-11T15:00:00.172Z,101070.34
2023-02-11T15:02:36.826Z,101043.78
2023-02-11T15:05:24.930Z,101046.09
2023-02-11T15:07:59.081Z,101059.66
2023-02-11T15:10:35.965Z,101052.63
2023-02-11T15:13:08.394Z,101001.81
2023-02-11T15:15:43.601Z,101055.09
2023-02-11T15:18:23.912Z,101033.16
2023-02-11T15:20:55.723Z,101062.59
2023-02-11T15:23:33.073Z,101054.81
2023-02-11T15:26:11.180Z,101039.94
2023-02-11T15:28:50.198Z,101043.09
2023-02-11T15:31:26.524Z,101046.50
2023-02-11T15:33:58.602Z,101022.34
2023-02-11T15:36:34.278Z,101046.75
2023-02-11T15:39:23.714Z,101047.38
2023-02-11T15:41:57.134Z,101047.44
2023-02-11T15:44:33.355Z,101014.63
2023-02-11T15:47:16.985Z,101039.53
2023-02-11T15:49:49.405Z,101045.13
2023-02-11T15:52:27.811Z,101052.22
2023-02-11T15:55:02.569Z,101048.72
2023-02-11T15:57:36.616Z,101032.59
2023-02-11T16:00:08.986Z,101043.75
2023-02-11T16:02:45.872Z,101045.78
2023-02-11T16:05:30.334Z,101037.91
2023-02-11T16:08:02.074Z,101049.19
2023-02-11T16:10:39.583Z,101049.31
2023-02-11T16:13:23.152Z,101048.72
2023-02-11T16:15:57.721Z,101051.72
2023-02-11T16:18:39.383Z,100968.44
2023-02-11T16:21:18.212Z,101045.50
2023-02-11T16:23:55.870Z,101054.28
2023-02-11T16:26:32.915Z,101058.06
2023-02-11T16:29:15.638Z,101043.03
2023-02-11T16:31:48.040Z,101060.13
2023-02-11T16:34:21.227Z,101023.34
2023-02-11T16:36:52.919Z,101017.03
2023-02-11T16:39:25.076Z,101056.53
2023-02-11T16:41:56.667Z,101047.69
2023-02-11T16:44:28.943Z,101069.91
2023-02-11T16:47:04.301Z,101049.81
2023-02-11T16:49:37.669Z,101060.09
2023-02-11T16:52:11.506Z,101042.94
2023-02-11T16:54:45.137Z,101063.63
2023-02-11T16:57:17.483Z,101062.81
2023-02-11T16:59:55.908Z,100983.66
2023-02-11T17:02:29.296Z,101048.94
2023-02-11T17:05:04.791Z,101055.31
2023-02-11T17:07:36.216Z,101064.28
2023-02-11T17:10:06.998Z,101052.34
2023-02-11T17:12:37.697Z,101057.25
2023-02-11T17:15:10.654Z,101054.56
2023-02-11T17:17:41.258Z,101051.31
2023-02-11T17:20:14.523Z,101047.47
2023-02-11T17:22:45.248Z,101051.88
2023-02-11T17:25:15.972Z,101044.16
2023-02-11T17:27:46.744Z,101046.03
2023-02-11T17:30:19.442Z,101044.81
2023-02-11T17:32:50.050Z,101044.38
2023-02-11T17:35:20.750Z,100970.06
2023-02-11T17:37:52.006Z,101041.00
2023-02-11T17:40:22.844Z,101035.44
2023-02-11T17:42:54.004Z,101031.28
2023-02-11T17:45:26.303Z,101032.06
2023-02-11T17:47:59.879Z,101039.13
2023-02-11T17:50:30.550Z,101044.78
2023-02-11T17:53:01.744Z,101035.22
2023-02-11T17:55:36.280Z,101036.22
2023-02-11T17:58:07.032Z,101036.53
2023-02-11T18:00:39.405Z,101029.25
2023-02-11T18:03:10.559Z,101030.00
2023-02-11T18:05:41.456Z,101036.78
2023-02-11T18:08:12.092Z,101029.66
2023-02-11T18:10:59.104Z,101041.13
2023-02-11T18:13:33.510Z,101030.81
2023-02-11T18:16:20.470Z,101030.66
2023-02-11T18:19:02.548Z,101025.97
2023-02-11T18:21:45.133Z,101025.75
2023-02-11T18:24:28.822Z,101024.28
2023-02-11T18:27:04.998Z,101014.53
2023-02-11T18:29:35.986Z,101010.72
2023-02-11T18:32:10.407Z,101017.22
2023-02-11T18:34:45.123Z,100971.50
2023-02-11T18:37:26.065Z,100921.66
2023-02-11T18:39:56.808Z,101020.06
2023-02-11T18:42:28.807Z,101020.88
2023-02-11T18:44:59.311Z,101016.56
2023-02-11T18:47:31.600Z,101013.03
2023-02-11T18:50:02.141Z,101025.53
2023-02-11T18:52:34.886Z,100990.25
2023-02-11T18:55:05.453Z,101016.22
2023-02-11T18:57:36.128Z,101012.88
2023-02-11T19:00:12.333Z,101013.22
2023-02-11T19:02:44.428Z,101013.66
2023-02-11T19:05:15.035Z,101015.44
2023-02-11T19:07:45.616Z,101020.72
2023-02-11T19:10:16.252Z,101028.50
2023-02-11T19:12:47.404Z,101026.16
2023-02-11T19:15:17.988Z,101016.22
2023-02-11T19:17:50.193Z,101019.63
2023-02-11T19:20:21.032Z,101003.75
2023-02-11T19:22:51.786Z,101020.69
2023-02-11T19:25:22.560Z,101021.03
2023-02-11T19:27:54.016Z,101018.69
2023-02-11T19:30:24.714Z,101007.44
2023-02-11T19:32:58.511Z,101010.09
2023-02-11T19:35:29.027Z,101006.88
2023-02-11T19:37:59.587Z,100995.91
2023-02-11T19:40:30.176Z,100990.88
2023-02-11T19:43:00.674Z,100990.88
2023-02-11T19:45:31.290Z,100992.19
2023-02-11T19:48:06.259Z,100992.00
2023-02-11T19:50:36.798Z,100969.31
2023-02-11T19:53:07.364Z,100984.66
2023-02-11T19:58:22.098Z,100990.41
2023-02-11T20:00:53.129Z,100995.19
2023-02-11T20:03:28.321Z,100923.47
2023-02-11T20:06:01.845Z,100988.19
2023-02-11T20:08:33.947Z,100980.25
2023-02-11T20:11:14.914Z,100979.94
2023-02-11T20:13:46.950Z,100968.44
2023-02-11T20:16:36.838Z,100968.91
2023-02-11T20:19:23.869Z,100943.38
2023-02-11T20:21:57.957Z,100922.47
2023-02-11T20:24:30.764Z,100958.97
2023-02-11T20:27:01.271Z,100957.19
2023-02-11T20:29:32.725Z,100958.09
2023-02-11T20:32:08.739Z,100957.63
2023-02-11T20:34:40.904Z,100946.81
2023-02-11T20:37:11.366Z,100946.91
2023-02-11T20:39:42.858Z,100955.75
2023-02-11T20:42:16.158Z,100936.09
2023-02-11T20:44:46.678Z,100954.03
2023-02-11T20:47:20.101Z,100961.06
2023-02-11T20:49:52.897Z,100969.59
2023-02-11T20:52:23.419Z,100967.66
2023-02-11T20:54:53.896Z,100954.31
2023-02-11T20:57:24.439Z,100966.63
2023-02-11T20:59:55.190Z,100967.06
2023-02-11T21:02:25.638Z,100966.88
2023-02-11T21:04:57.656Z,100966.44
2023-02-11T21:07:30.020Z,100971.91
2023-02-11T21:10:00.634Z,100973.78
2023-02-11T21:12:31.041Z,100972.66
2023-02-11T21:15:01.556Z,100970.59
2023-02-11T21:17:32.071Z,100966.31
2023-02-11T21:20:04.022Z,100958.47
2023-02-11T21:22:34.527Z,100970.44
2023-02-11T21:25:06.896Z,100971.50
2023-02-11T21:27:37.383Z,100973.88
2023-02-11T21:30:08.681Z,100969.72
2023-02-11T21:32:39.039Z,100957.38
2023-02-11T21:35:11.769Z,100961.81
2023-02-11T21:37:42.256Z,100947.94
2023-02-11T21:40:15.666Z,100947.94
2023-02-11T21:42:46.185Z,100949.44
2023-02-11T21:45:16.581Z,100957.53
2023-02-11T21:47:47.023Z,100955.19
2023-02-11T21:50:19.349Z,100950.19
2023-02-11T21:52:49.784Z,100934.84
2023-02-11T21:55:20.536Z,100947.63
2023-02-11T21:57:51.092Z,100952.31
2023-02-11T22:00:24.389Z,100967.03
2023-02-11T22:02:54.785Z,100967.59
2023-02-11T22:05:28.060Z,100971.84
2023-02-11T22:07:58.620Z,100965.06
2023-02-11T22:10:29.105Z,100955.91
2023-02-11T22:12:59.576Z,100970.97
2023-02-11T22:15:30.109Z,100968.84
2023-02-11T22:18:00.496Z,100975.13
2023-02-11T22:20:32.609Z,100972.84
2023-02-11T22:23:03.561Z,100981.31
2023-02-11T22:25:33.966Z,100981.53
2023-02-11T22:28:04.422Z,100976.72
2023-02-11T22:30:34.966Z,100980.38
2023-02-11T22:33:06.505Z,100982.84
2023-02-11T22:35:38.517Z,100969.56
2023-02-11T22:38:08.888Z,100965.56
2023-02-11T22:40:44.322Z,100979.69
2023-02-11T22:43:14.819Z,100973.16
2023-02-11T22:45:45.301Z,100975.97
2023-02-11T22:48:15.855Z,100977.03
2023-02-11T22:50:47.834Z,100972.81
2023-02-11T22:53:18.233Z,100985.56
2023-02-11T22:55:48.822Z,100929.47
2023-02-11T22:58:19.665Z,100977.94
2023-02-11T23:00:50.133Z,100972.16
2023-02-11T23:03:20.613Z,100975.03
2023-02-11T23:05:53.249Z,100969.41
2023-02-11T23:08:24.080Z,100974.44
2023-02-11T23:10:54.660Z,100977.72
2023-02-11T23:13:25.256Z,100972.41
2023-02-11T23:15:56.013Z,100981.47
2023-02-11T23:18:26.668Z,100939.88
2023-02-11T23:20:58.777Z,100986.25
2023-02-11T23:23:29.244Z,100969.63
2023-02-11T23:25:59.780Z,100979.72
2023-02-11T23:28:30.771Z,100969.72
2023-02-11T23:31:01.373Z,100962.78
2023-02-11T23:33:31.869Z,100964.78
2023-02-11T23:36:04.233Z,100955.09
2023-02-11T23:38:34.859Z,100973.66
2023-02-11T23:41:05.631Z,100976.41
2023-02-11T23:43:36.175Z,100984.72
2023-02-11T23:46:07.062Z,100981.44
2023-02-11T23:48:38.514Z,100984.22
2023-02-11T23:51:12.060Z,100989.28
2023-02-11T23:53:43.185Z,100991.03
2023-02-11T23:56:18.256Z,100984.72
2023-02-11T23:58:50.735Z,100973.84
